createdAt,value
2019-06-01T00:00:11.545Z,15.16
2019-06-01T00:02:36.082Z,15.21
2019-06-01T00:05:06.484Z,15.08
2019-06-01T00:07:34.986Z,14.93
2019-06-01T00:10:04.629Z,14.88
2019-06-01T00:12:33.095Z,14.89
2019-06-01T00:15:01.508Z,15.03
2019-06-01T00:17:29.946Z,15.07
2019-06-01T00:19:58.420Z,15.10
2019-06-01T00:22:26.838Z,15.07
2019-06-01T00:24:55.288Z,14.85
2019-06-01T00:27:23.733Z,14.83
2019-06-01T00:29:53.097Z,14.94
2019-06-01T00:32:21.590Z,14.76
2019-06-01T00:34:50.063Z,14.77
2019-06-01T00:37:18.544Z,14.83
2019-06-01T00:39:47.871Z,14.83
2019-06-01T00:42:16.573Z,14.71
2019-06-01T00:44:46.225Z,14.65
2019-06-01T00:47:14.761Z,14.69
2019-06-01T00:49:43.236Z,14.57
2019-06-01T00:52:11.744Z,14.50
2019-06-01T00:54:40.185Z,14.49
2019-06-01T00:57:08.690Z,14.44
2019-06-01T00:59:37.460Z,14.43
2019-06-01T01:02:05.905Z,14.39
2019-06-01T01:04:34.361Z,14.43
2019-06-01T01:07:02.839Z,14.41
2019-06-01T01:09:31.317Z,14.41
2019-06-01T01:11:59.812Z,14.32
2019-06-01T01:14:28.319Z,14.39
2019-06-01T01:16:56.788Z,14.41
2019-06-01T01:19:25.260Z,14.27
2019-06-01T01:21:56.327Z,14.22
2019-06-01T01:24:24.807Z,14.31
2019-06-01T01:26:53.299Z,14.33
2019-06-01T01:29:21.865Z,14.34
2019-06-01T01:31:51.108Z,14.14
2019-06-01T01:34:19.578Z,14.34
2019-06-01T01:36:48.045Z,14.24
2019-06-01T01:39:16.487Z,14.27
2019-06-01T01:41:44.946Z,14.14
2019-06-01T01:44:13.410Z,14.25
2019-06-01T01:46:41.907Z,14.23
2019-06-01T01:49:10.408Z,14.25
2019-06-01T01:51:38.824Z,14.25
2019-06-01T01:54:08.851Z,14.12
2019-06-01T01:56:37.298Z,14.14
2019-06-01T01:59:07.296Z,14.14
2019-06-01T02:01:35.798Z,14.15
2019-06-01T02:04:04.631Z,14.08
2019-06-01T02:06:33.155Z,14.01
2019-06-01T02:09:01.939Z,14.03
2019-06-01T02:11:30.599Z,14.00
2019-06-01T02:13:59.923Z,14.05
2019-06-01T02:16:28.452Z,14.08
2019-06-01T02:18:58.467Z,13.99
2019-06-01T02:21:27.266Z,13.97
2019-06-01T02:23:56.912Z,13.86
2019-06-01T02:26:25.433Z,13.88
2019-06-01T02:28:55.508Z,13.87
2019-06-01T02:31:39.747Z,13.79
2019-06-01T02:33:54.110Z,13.81
2019-06-01T02:36:22.574Z,13.72
2019-06-01T02:38:51.058Z,13.76
2019-06-01T02:41:19.482Z,13.75
2019-06-01T02:43:48.132Z,13.70
2019-06-01T02:46:16.604Z,13.66
2019-06-01T02:48:45.045Z,13.63
2019-06-01T02:51:13.459Z,13.57
2019-06-01T02:53:41.939Z,13.54
2019-06-01T02:56:10.423Z,13.53
2019-06-01T02:58:38.907Z,13.55
2019-06-01T03:01:16.101Z,13.56
2019-06-01T03:03:44.612Z,13.48
2019-06-01T03:06:14.949Z,13.48
2019-06-01T03:08:45.452Z,13.49
2019-06-01T03:11:15.531Z,13.44
2019-06-01T03:13:46.485Z,13.40
2019-06-01T03:16:16.555Z,13.38
2019-06-01T03:18:46.096Z,13.43
2019-06-01T03:21:17.588Z,13.38
2019-06-01T03:23:48.397Z,13.42
2019-06-01T03:26:17.388Z,13.51
2019-06-01T03:28:48.905Z,13.57
2019-06-01T03:31:17.312Z,13.61
2019-06-01T03:33:45.796Z,13.56
2019-06-01T03:36:15.623Z,13.58
2019-06-01T03:38:45.102Z,13.55
2019-06-01T03:41:13.625Z,13.66
2019-06-01T03:43:42.084Z,13.72
2019-06-01T03:46:10.635Z,13.72
2019-06-01T03:48:39.055Z,13.78
2019-06-01T03:51:08.289Z,13.75
2019-06-01T03:53:36.959Z,13.77
2019-06-01T03:56:05.533Z,13.74
2019-06-01T03:58:33.965Z,13.79
2019-06-01T04:01:03.160Z,13.79
2019-06-01T04:03:31.805Z,13.75
2019-06-01T04:06:01.183Z,13.80
2019-06-01T04:08:29.682Z,13.81
2019-06-01T04:10:58.153Z,13.86
2019-06-01T04:13:26.584Z,13.85
2019-06-01T04:15:55.094Z,13.83
2019-06-01T04:18:23.592Z,13.88
2019-06-01T04:20:52.065Z,13.92
2019-06-01T04:23:22.023Z,13.95
2019-06-01T04:25:50.535Z,14.04
2019-06-01T04:28:18.947Z,14.09
2019-06-01T04:30:47.478Z,14.07
2019-06-01T04:33:15.980Z,14.16
2019-06-01T04:35:44.571Z,14.26
2019-06-01T04:38:13.390Z,14.18
2019-06-01T04:40:42.190Z,14.22
2019-06-01T04:43:11.991Z,14.30
2019-06-01T04:45:40.551Z,14.40
2019-06-01T04:48:09.030Z,14.41
2019-06-01T04:50:37.526Z,14.54
2019-06-01T04:53:06.859Z,14.61
2019-06-01T04:55:35.514Z,14.62
2019-06-01T04:58:04.636Z,14.69
2019-06-01T05:00:33.104Z,14.77
2019-06-01T05:03:05.276Z,14.84
2019-06-01T05:05:31.765Z,14.88
2019-06-01T05:08:00.230Z,15.03
2019-06-01T05:10:28.675Z,15.10
2019-06-01T05:12:57.146Z,15.21
2019-06-01T05:15:25.616Z,15.24
2019-06-01T05:17:54.081Z,15.25
2019-06-01T05:20:22.544Z,15.32
2019-06-01T05:22:51.012Z,15.43
2019-06-01T05:25:19.482Z,15.45
2019-06-01T05:27:47.920Z,15.52
2019-06-01T05:30:18.051Z,15.48
2019-06-01T05:32:46.544Z,15.55
2019-06-01T05:35:15.894Z,15.58
2019-06-01T05:37:44.359Z,15.62
2019-06-01T05:40:12.920Z,15.65
2019-06-01T05:42:41.387Z,15.62
2019-06-01T05:45:11.281Z,15.66
2019-06-01T05:47:39.880Z,15.83
2019-06-01T05:50:10.590Z,15.81
2019-06-01T05:52:38.465Z,15.82
2019-06-01T05:55:07.501Z,15.92
2019-06-01T05:57:36.008Z,15.98
2019-06-01T06:00:07.376Z,16.02
2019-06-01T06:02:35.984Z,16.01
2019-06-01T06:05:07.198Z,16.08
2019-06-01T06:07:36.256Z,16.17
2019-06-01T06:10:06.762Z,16.20
2019-06-01T06:12:35.255Z,16.41
2019-06-01T06:15:04.662Z,16.58
2019-06-01T06:17:33.159Z,16.56
2019-06-01T06:20:01.661Z,16.66
2019-06-01T06:22:30.118Z,16.85
2019-06-01T06:25:00.047Z,16.91
2019-06-01T06:27:28.647Z,17.00
2019-06-01T06:29:58.662Z,17.07
2019-06-01T06:32:27.088Z,17.25
2019-06-01T06:34:55.575Z,17.20
2019-06-01T06:37:24.059Z,17.22
2019-06-01T06:39:52.553Z,17.29
2019-06-01T06:42:20.987Z,17.36
2019-06-01T06:44:49.539Z,17.50
2019-06-01T06:47:18.776Z,17.53
2019-06-01T06:49:47.425Z,17.60
2019-06-01T06:52:15.919Z,17.82
2019-06-01T06:54:44.492Z,17.86
2019-06-01T06:57:12.974Z,17.94
2019-06-01T06:59:41.425Z,18.13
2019-06-01T07:02:09.910Z,18.16
2019-06-01T07:04:38.383Z,18.46
2019-06-01T07:07:06.836Z,18.47
2019-06-01T07:09:35.295Z,18.53
2019-06-01T07:12:05.292Z,18.66
2019-06-01T07:14:33.791Z,18.81
2019-06-01T07:17:02.347Z,18.92
2019-06-01T07:19:31.901Z,18.80
2019-06-01T07:22:00.502Z,18.85
2019-06-01T07:24:29.909Z,18.95
2019-06-01T07:27:00.031Z,18.81
2019-06-01T07:29:28.547Z,19.04
2019-06-01T07:31:57.011Z,18.96
2019-06-01T07:34:33.517Z,19.14
2019-06-01T07:36:55.818Z,19.26
2019-06-01T07:39:24.830Z,19.21
2019-06-01T07:41:55.105Z,19.25
2019-06-01T07:44:24.882Z,19.35
2019-06-01T07:46:53.480Z,19.37
2019-06-01T07:49:23.231Z,19.51
2019-06-01T07:51:52.021Z,19.56
2019-06-01T07:54:22.334Z,19.94
2019-06-01T07:56:50.773Z,19.70
2019-06-01T07:59:19.322Z,20.17
2019-06-01T08:01:47.914Z,20.26
2019-06-01T08:04:17.992Z,20.20
2019-06-01T08:06:48.568Z,20.19
2019-06-01T08:09:16.736Z,20.45
2019-06-01T08:11:46.923Z,20.53
2019-06-01T08:14:15.374Z,20.78
2019-06-01T08:16:45.125Z,20.80
2019-06-01T08:19:13.767Z,20.72
2019-06-01T08:21:42.246Z,21.00
2019-06-01T08:24:10.906Z,20.62
2019-06-01T08:26:39.408Z,20.70
2019-06-01T08:29:07.932Z,21.09
2019-06-01T08:31:36.400Z,21.19
2019-06-01T08:34:04.931Z,20.96
2019-06-01T08:36:33.883Z,21.25
2019-06-01T08:39:02.456Z,21.33
2019-06-01T08:41:31.551Z,21.77
2019-06-01T08:44:00.048Z,21.41
2019-06-01T08:46:29.591Z,21.57
2019-06-01T08:48:58.646Z,21.43
2019-06-01T08:51:28.209Z,22.09
2019-06-01T08:54:01.312Z,21.89
2019-06-01T08:56:30.286Z,22.00
2019-06-01T08:58:58.794Z,21.35
2019-06-01T09:01:28.550Z,22.11
2019-06-01T09:03:57.277Z,22.31
2019-06-01T09:06:26.721Z,22.01
2019-06-01T09:08:57.929Z,22.82
2019-06-01T09:11:27.036Z,22.18
2019-06-01T09:13:55.531Z,22.32
2019-06-01T09:16:27.695Z,22.58
2019-06-01T09:18:56.024Z,22.36
2019-06-01T09:21:25.380Z,22.18
2019-06-01T09:23:53.953Z,22.24
2019-06-01T09:26:23.217Z,22.38
2019-06-01T09:28:51.763Z,22.51
2019-06-01T09:31:20.273Z,22.49
2019-06-01T09:33:50.388Z,22.60
2019-06-01T09:36:18.803Z,22.99
2019-06-01T09:38:47.365Z,22.98
2019-06-01T09:41:16.075Z,22.70
2019-06-01T09:43:46.052Z,23.08
2019-06-01T09:46:16.117Z,22.89
2019-06-01T09:48:46.104Z,22.73
2019-06-01T09:51:14.655Z,23.09
2019-06-01T09:53:43.138Z,23.31
2019-06-01T09:56:11.610Z,23.39
2019-06-01T09:58:40.166Z,23.83
2019-06-01T10:01:08.771Z,23.35
2019-06-01T10:03:38.583Z,23.70
2019-06-01T10:06:07.195Z,23.72
2019-06-01T10:08:36.156Z,23.71
2019-06-01T10:11:04.788Z,23.89
2019-06-01T10:13:36.287Z,24.72
2019-06-01T10:16:04.914Z,23.56
2019-06-01T10:18:35.181Z,24.09
2019-06-01T10:21:03.935Z,23.69
2019-06-01T10:23:34.519Z,24.36
2019-06-01T10:26:03.383Z,24.57
2019-06-01T10:28:33.562Z,24.56
2019-06-01T10:31:02.096Z,24.62
2019-06-01T10:33:32.888Z,24.42
2019-06-01T10:36:16.581Z,24.33
2019-06-01T10:38:31.596Z,24.47
2019-06-01T10:41:00.145Z,23.98
2019-06-01T10:43:28.741Z,24.50
2019-06-01T10:45:57.282Z,24.58
2019-06-01T10:48:25.782Z,24.93
2019-06-01T10:50:54.320Z,24.93
2019-06-01T10:53:24.510Z,24.50
2019-06-01T10:55:52.942Z,24.98
2019-06-01T10:58:21.505Z,24.80
2019-06-01T11:00:51.265Z,24.77
2019-06-01T11:03:19.918Z,25.36
2019-06-01T11:05:48.400Z,24.83
2019-06-01T11:08:16.825Z,25.39
2019-06-01T11:10:45.382Z,24.99
2019-06-01T11:13:16.531Z,25.27
2019-06-01T11:15:51.954Z,25.37
2019-06-01T11:18:25.528Z,25.27
2019-06-01T11:20:53.968Z,25.35
2019-06-01T11:23:25.393Z,24.87
2019-06-01T11:25:53.841Z,25.33
2019-06-01T11:28:22.550Z,25.01
2019-06-01T11:30:51.006Z,25.58
2019-06-01T11:33:19.466Z,25.68
2019-06-01T11:35:47.918Z,26.15
2019-06-01T11:38:16.383Z,25.39
2019-06-01T11:40:46.462Z,25.79
2019-06-01T11:43:18.554Z,26.08
2019-06-01T11:45:49.535Z,26.17
2019-06-01T11:48:16.856Z,26.48
2019-06-01T11:50:46.848Z,26.62
2019-06-01T11:53:15.310Z,26.36
2019-06-01T11:55:47.499Z,26.17
2019-06-01T11:58:17.654Z,26.05
2019-06-01T12:00:46.149Z,26.22
2019-06-01T12:03:14.615Z,26.24
2019-06-01T12:05:44.131Z,26.19
2019-06-01T12:08:14.168Z,27.66
2019-06-01T12:10:43.148Z,26.76
2019-06-01T12:13:11.660Z,26.32
2019-06-01T12:15:46.396Z,28.26
2019-06-01T12:18:15.034Z,28.24
2019-06-01T12:20:47.746Z,28.33
2019-06-01T12:23:16.160Z,28.00
2019-06-01T12:25:44.624Z,27.61
2019-06-01T12:28:16.121Z,28.97
2019-06-01T12:30:45.826Z,28.82
2019-06-01T12:33:17.202Z,29.21
2019-06-01T12:35:46.801Z,29.18
2019-06-01T12:38:19.325Z,28.98
2019-06-01T12:40:51.536Z,29.06
2019-06-01T12:43:20.075Z,29.92
2019-06-01T12:46:04.754Z,30.58
2019-06-01T12:48:19.144Z,29.78
2019-06-01T12:50:50.782Z,28.98
2019-06-01T12:53:18.171Z,28.69
2019-06-01T12:55:48.922Z,30.07
2019-06-01T12:58:16.936Z,30.19
2019-06-01T13:00:46.175Z,28.59
2019-06-01T13:03:14.771Z,28.27
2019-06-01T13:05:43.615Z,29.49
2019-06-01T13:08:12.223Z,29.25
2019-06-01T13:10:41.049Z,29.89
2019-06-01T13:13:09.560Z,30.84
2019-06-01T13:15:41.127Z,30.31
2019-06-01T13:18:09.672Z,29.92
2019-06-01T13:20:38.236Z,30.14
2019-06-01T13:23:06.786Z,29.16
2019-06-01T13:25:35.303Z,29.97
2019-06-01T13:28:03.770Z,29.47
2019-06-01T13:30:32.309Z,30.30
2019-06-01T13:33:01.967Z,30.05
2019-06-01T13:35:30.359Z,29.48
2019-06-01T13:38:11.634Z,29.53
2019-06-01T13:40:28.569Z,30.22
2019-06-01T13:42:57.083Z,29.01
2019-06-01T13:45:27.741Z,28.84
2019-06-01T13:47:56.171Z,29.96
2019-06-01T13:50:27.007Z,28.01
2019-06-01T13:52:55.334Z,28.56
2019-06-01T13:55:23.802Z,27.81
2019-06-01T13:57:52.521Z,27.44
2019-06-01T14:00:30.246Z,27.33
2019-06-01T14:02:55.548Z,27.16
2019-06-01T14:05:21.417Z,26.92
2019-06-01T14:07:51.599Z,26.84
2019-06-01T14:10:20.040Z,26.81
2019-06-01T14:12:49.367Z,26.88
2019-06-01T14:15:18.016Z,26.73
2019-06-01T14:17:46.502Z,26.73
2019-06-01T14:20:15.728Z,26.77
2019-06-01T14:22:45.670Z,26.68
2019-06-01T14:25:15.531Z,26.81
2019-06-01T14:27:44.021Z,26.74
2019-06-01T14:30:14.019Z,26.47
2019-06-01T14:32:42.506Z,26.50
2019-06-01T14:35:11.324Z,26.55
2019-06-01T14:37:39.746Z,26.61
2019-06-01T14:40:08.381Z,26.79
2019-06-01T14:42:36.772Z,26.60
2019-06-01T14:45:09.823Z,26.49
2019-06-01T14:47:38.244Z,26.75
2019-06-01T14:50:10.662Z,26.61
2019-06-01T14:52:39.137Z,26.67
2019-06-01T14:55:11.362Z,26.83
2019-06-01T14:57:41.539Z,26.53
2019-06-01T15:00:11.435Z,26.66
2019-06-01T15:02:39.846Z,27.02
2019-06-01T15:05:08.745Z,26.36
2019-06-01T15:07:37.203Z,26.58
2019-06-01T15:10:10.755Z,26.66
2019-06-01T15:12:39.408Z,26.51
2019-06-01T15:15:08.796Z,26.27
2019-06-01T15:17:37.320Z,26.10
2019-06-01T15:20:09.318Z,25.84
2019-06-01T15:22:39.423Z,25.99
2019-06-01T15:25:09.598Z,26.37
2019-06-01T15:27:38.022Z,26.62
2019-06-01T15:30:07.749Z,26.11
2019-06-01T15:32:36.138Z,26.57
2019-06-01T15:35:08.679Z,26.92
2019-06-01T15:37:37.118Z,26.78
2019-06-01T15:40:07.680Z,26.55
2019-06-01T15:42:35.386Z,26.44
2019-06-01T15:45:05.526Z,26.65
2019-06-01T15:47:34.005Z,26.45
2019-06-01T15:50:02.686Z,26.08
2019-06-01T15:52:31.152Z,25.83
2019-06-01T15:55:00.472Z,26.28
2019-06-01T15:57:30.593Z,26.31
2019-06-01T15:59:59.104Z,26.09
2019-06-01T16:02:29.100Z,26.07
2019-06-01T16:04:57.606Z,26.07
2019-06-01T16:07:26.050Z,25.95
2019-06-01T16:09:57.411Z,25.84
2019-06-01T16:12:25.885Z,25.84
2019-06-01T16:14:55.448Z,26.06
2019-06-01T16:17:24.128Z,26.34
2019-06-01T16:19:53.828Z,26.56
2019-06-01T16:22:22.350Z,26.51
2019-06-01T16:24:50.780Z,26.49
2019-06-01T16:27:19.227Z,26.45
2019-06-01T16:29:47.979Z,26.40
2019-06-01T16:32:16.481Z,26.30
2019-06-01T16:34:44.898Z,26.20
2019-06-01T16:37:13.371Z,26.01
2019-06-01T16:39:57.994Z,26.05
2019-06-01T16:42:11.972Z,26.18
2019-06-01T16:44:40.397Z,25.66
2019-06-01T16:47:08.811Z,25.92
2019-06-01T16:49:37.291Z,25.78
2019-06-01T16:52:07.132Z,25.72
2019-06-01T16:54:35.770Z,25.89
2019-06-01T16:57:05.367Z,26.32
2019-06-01T16:59:33.947Z,26.21
2019-06-01T17:02:03.376Z,25.67
2019-06-01T17:04:31.917Z,26.15
2019-06-01T17:07:00.731Z,26.02
2019-06-01T17:09:29.176Z,25.82
2019-06-01T17:11:58.680Z,25.98
2019-06-01T17:14:29.343Z,25.86
2019-06-01T17:16:57.188Z,25.72
2019-06-01T17:19:25.563Z,25.61
2019-06-01T17:21:54.038Z,25.48
2019-06-01T17:24:22.522Z,25.37
2019-06-01T17:26:51.514Z,25.46
2019-06-01T17:29:27.733Z,25.36
2019-06-01T17:32:12.578Z,25.03
2019-06-01T17:34:26.388Z,24.94
2019-06-01T17:36:56.068Z,24.99
2019-06-01T17:39:24.411Z,24.95
2019-06-01T17:42:24.368Z,24.95
2019-06-01T17:44:52.975Z,25.07
2019-06-01T17:47:21.430Z,25.07
2019-06-01T17:49:49.194Z,25.45
2019-06-01T17:52:17.672Z,24.93
2019-06-01T17:54:46.197Z,24.80
2019-06-01T17:57:14.661Z,25.07
2019-06-01T17:59:43.145Z,24.64
2019-06-01T18:02:13.206Z,24.72
2019-06-01T18:04:41.670Z,24.63
2019-06-01T18:07:10.290Z,24.74
2019-06-01T18:09:38.811Z,25.14
2019-06-01T18:12:08.142Z,25.27
2019-06-01T18:14:36.724Z,24.98
2019-06-01T18:17:08.254Z,25.19
2019-06-01T18:19:36.769Z,25.16
2019-06-01T18:22:06.611Z,24.66
2019-06-01T18:24:37.255Z,24.95
2019-06-01T18:27:08.531Z,24.88
2019-06-01T18:29:39.592Z,24.68
2019-06-01T18:32:09.830Z,24.72
2019-06-01T18:34:38.305Z,24.88
2019-06-01T18:37:07.463Z,24.72
2019-06-01T18:39:36.133Z,24.57
2019-06-01T18:42:06.331Z,24.60
2019-06-01T18:44:34.913Z,24.59
2019-06-01T18:47:03.714Z,24.44
2019-06-01T18:49:33.842Z,24.53
2019-06-01T18:52:02.325Z,24.30
2019-06-01T18:54:30.753Z,24.34
2019-06-01T18:57:13.446Z,24.25
2019-06-01T18:59:31.048Z,24.00
2019-06-01T19:01:59.554Z,23.76
2019-06-01T19:04:28.032Z,23.54
2019-06-01T19:06:56.531Z,23.29
2019-06-01T19:09:25.029Z,23.17
2019-06-01T19:11:53.503Z,23.06
2019-06-01T19:14:23.808Z,22.92
2019-06-01T19:16:56.481Z,22.83
2019-06-01T19:19:24.964Z,22.72
2019-06-01T19:21:55.064Z,22.64
2019-06-01T19:24:29.277Z,22.55
2019-06-01T19:27:00.156Z,22.49
2019-06-01T19:29:30.318Z,22.35
2019-06-01T19:31:58.814Z,22.17
2019-06-01T19:34:27.365Z,22.13
2019-06-01T19:36:55.813Z,22.03
2019-06-01T19:39:24.864Z,21.90
2019-06-01T19:41:53.403Z,21.69
2019-06-01T19:44:23.199Z,21.52
2019-06-01T19:46:51.717Z,21.33
2019-06-01T19:49:21.559Z,21.26
2019-06-01T19:51:50.162Z,21.13
2019-06-01T19:54:19.021Z,21.15
2019-06-01T19:56:52.030Z,21.18
2019-06-01T19:59:23.488Z,21.10
2019-06-01T20:01:52.055Z,21.03
2019-06-01T20:04:20.540Z,20.92
2019-06-01T20:06:53.105Z,20.87
2019-06-01T20:09:23.127Z,20.79
2019-06-01T20:12:01.251Z,20.62
2019-06-01T20:14:25.164Z,20.38
2019-06-01T20:16:53.382Z,20.24
2019-06-01T20:19:23.016Z,20.25
2019-06-01T20:21:51.536Z,20.33
2019-06-01T20:24:21.364Z,20.28
2019-06-01T20:26:51.417Z,20.23
2019-06-01T20:29:19.884Z,20.23
2019-06-01T20:31:48.480Z,20.28
2019-06-01T20:34:17.968Z,20.17
2019-06-01T20:36:46.583Z,20.19
2019-06-01T20:39:16.785Z,20.23
2019-06-01T20:41:47.078Z,20.22
2019-06-01T20:44:16.684Z,20.23
2019-06-01T20:46:46.917Z,20.13
2019-06-01T20:49:16.970Z,20.07
2019-06-01T20:51:45.475Z,20.03
2019-06-01T20:54:14.972Z,19.94
2019-06-01T20:56:43.468Z,19.76
2019-06-01T20:59:13.154Z,19.78
2019-06-01T21:01:41.937Z,19.62
2019-06-01T21:04:11.989Z,19.46
2019-06-01T21:06:42.135Z,19.52
2019-06-01T21:09:10.642Z,19.47
2019-06-01T21:11:39.195Z,19.36
2019-06-01T21:14:07.702Z,19.41
2019-06-01T21:16:36.190Z,19.39
2019-06-01T21:19:04.823Z,19.25
2019-06-01T21:21:33.255Z,19.20
2019-06-01T21:24:01.709Z,19.22
2019-06-01T21:26:30.143Z,19.09
2019-06-01T21:28:58.624Z,19.06
2019-06-01T21:31:27.115Z,19.03
2019-06-01T21:33:55.574Z,19.30
2019-06-01T21:36:23.996Z,19.13
2019-06-01T21:38:52.400Z,19.07
2019-06-01T21:41:21.569Z,19.36
2019-06-01T21:43:55.007Z,19.47
2019-06-01T21:46:25.779Z,19.30
2019-06-01T21:48:53.517Z,19.10
2019-06-01T21:51:24.356Z,18.93
2019-06-01T21:53:52.213Z,18.95
2019-06-01T21:56:22.246Z,18.92
2019-06-01T21:58:50.833Z,18.80
2019-06-01T22:01:22.689Z,18.80
2019-06-01T22:03:51.488Z,18.97
2019-06-01T22:06:21.896Z,19.19
2019-06-01T22:08:52.787Z,19.16
2019-06-01T22:11:21.399Z,19.12
2019-06-01T22:13:49.981Z,19.19
2019-06-01T22:16:19.964Z,19.34
2019-06-01T22:18:48.448Z,19.45
2019-06-01T22:21:17.630Z,19.49
2019-06-01T22:23:46.092Z,19.48
2019-06-01T22:26:14.529Z,19.47
2019-06-01T22:28:44.602Z,19.50
2019-06-01T22:31:13.036Z,19.43
2019-06-01T22:33:41.508Z,19.36
2019-06-01T22:36:09.947Z,19.38
2019-06-01T22:38:38.378Z,19.42
2019-06-01T22:41:06.801Z,19.42
2019-06-01T22:43:46.118Z,19.33
2019-06-01T22:46:07.026Z,19.30
2019-06-01T22:48:36.991Z,19.21
2019-06-01T22:51:05.481Z,19.17
2019-06-01T22:53:34.000Z,19.06
2019-06-01T22:56:02.459Z,19.01
2019-06-01T22:58:31.627Z,18.94
2019-06-01T23:01:01.708Z,18.96
2019-06-01T23:03:30.312Z,18.88
2019-06-01T23:05:58.760Z,18.76
2019-06-01T23:08:27.432Z,18.74
2019-06-01T23:10:55.798Z,18.63
2019-06-01T23:13:24.278Z,18.41
2019-06-01T23:15:52.747Z,18.49
2019-06-01T23:18:21.724Z,18.27
2019-06-01T23:20:50.169Z,18.40
2019-06-01T23:23:18.607Z,18.34
2019-06-01T23:25:47.017Z,18.23
2019-06-01T23:28:17.475Z,18.20
2019-06-01T23:30:45.989Z,18.22
2019-06-01T23:33:14.590Z,18.53
2019-06-01T23:38:10.702Z,18.07
2019-06-01T23:40:40.097Z,18.00
2019-06-01T23:43:08.611Z,17.98
2019-06-01T23:45:38.336Z,17.79
2019-06-01T23:48:06.778Z,17.71
2019-06-01T23:50:38.349Z,17.64
2019-06-01T23:53:13.629Z,17.69
2019-06-01T23:55:36.957Z,17.58
2019-06-01T23:58:05.386Z,17.44
